• Join FlightAware (Why Join?)
  • Login
  • US Flag 
07:59PM EST


 

Airport Tracker/Info


-or-


 

Live Flight TrackerFlight Track Log ✈ AFR1910 ✈ 14-Apr-2013 ✈ LFPG / CDG - EDDN / NUE

Flight Track Log - Related Links

Times and Time Zones

All times are in EDT time to prevent confusion due to time zone crossing. See the AFR1910 flight status page for this flight to view local times or setup timezone preferences in your user account.

Time Position Orientation Groundspeed Altitude Reporting Facility
EDT Latitude Longitude Course Direction KTS MPH feet Rate Location/Type
02:17PM 49.0534 2.9878 82° East  Level Estimated
02:18PM 49.0635 3.1003 82° East  Level Estimated
02:19PM 49.0736 3.2129 82° East  Level Estimated
02:20PM 49.0835 3.3254 82° East  Level Estimated
02:21PM 49.0933 3.4381 82° East  Level Estimated
02:22PM 49.1030 3.5507 82° East  Level Estimated
02:23PM 49.1126 3.6635 83° East  Level Estimated
02:24PM 49.1221 3.7762 83° East  Level Estimated
02:25PM 49.1315 3.8890 83° East  Level Estimated
02:26PM 49.1408 4.0019 83° East  Level Estimated
02:27PM 49.1499 4.1147 83° East  Level Estimated
02:28PM 49.1590 4.2277 83° East  Level Estimated
02:29PM 49.1679 4.3406 83° East  Level Estimated
02:30PM 49.1767 4.4536 83° East  Level Estimated
02:31PM 49.1855 4.5667 83° East  Level Estimated
02:32PM 49.1941 4.6798 83° East  Level Estimated
02:33PM 49.2026 4.7929 83° East  Level Estimated
02:34PM 49.2109 4.9061 83° East  Level Estimated
02:35PM 49.2192 5.0193 84° East  Level Estimated
02:36PM 49.2274 5.1325 84° East  Level Estimated
02:37PM 49.2355 5.2458 84° East  Level Estimated
02:38PM 49.2434 5.3591 84° East  Level Estimated
02:39PM 49.2513 5.4725 84° East  Level Estimated
02:40PM 49.2590 5.5858 84° East  Level Estimated
02:41PM 49.2666 5.6993 84° East  Level Estimated
02:42PM 49.2741 5.8127 84° East  Level Estimated
02:43PM 49.2815 5.9262 84° East  Level Estimated
02:44PM 49.2888 6.0397 84° East  Level Estimated
02:45PM 49.2959 6.1533 84° East  Level Estimated
02:46PM 49.3030 6.2669 85° East  Level Estimated
02:47PM 49.3099 6.3805 85° East  Level Estimated
02:48PM 49.3168 6.4942 85° East  Level Estimated
02:49PM 49.3241 6.6177 85° East  Level Estimated
02:50PM 49.3312 6.7414 85° East  Level Estimated
02:51PM 49.3383 6.8650 85° East  Level Estimated
02:52PM 49.3452 6.9887 85° East  Level Estimated
02:53PM 49.3520 7.1124 85° East  Level Estimated
02:54PM 49.3586 7.2361 85° East  Level Estimated
02:55PM 49.3651 7.3599 85° East  Level Estimated
02:56PM 49.3715 7.4837 85° East  Level Estimated
02:57PM 49.3778 7.6076 86° East  Level Estimated
02:58PM 49.3839 7.7315 86° East  Level Estimated
02:59PM 49.3899 7.8554 86° East  Level Estimated
03:00PM 49.3957 7.9793 86° East  Level Estimated
03:01PM 49.4014 8.1033 86° East  Level Estimated
03:02PM 49.4070 8.2273 86° East  Level Estimated
03:03PM 49.4125 8.3513 86° East  Level Estimated
03:04PM 49.4178 8.4754 86° East  Level Estimated
03:05PM 49.4230 8.5994 86° East  Level Estimated
03:06PM 49.4280 8.7235 86° East  Level Estimated
03:07PM 49.4329 8.8477 86° East  Level Estimated
03:08PM 49.4377 8.9718 87° East  Level Estimated
03:09PM 49.4424 9.0960 87° East  Level Estimated
03:10PM 49.4469 9.2202 87° East  Level Estimated
03:11PM 49.4513 9.3444 87° East  Level Estimated
03:12PM 49.4556 9.4687 87° East  Level Estimated
03:13PM 49.4597 9.5929 87° East  Level Estimated
03:14PM 49.4637 9.7172 87° East  Level Estimated
03:15PM 49.4675 9.8415 87° East  Level Estimated
03:16PM 49.4713 9.9659 87° East  Level Estimated
03:17PM 49.4749 10.0902 87° East  Level Estimated
03:18PM 49.4783 10.2146 88° East  Level Estimated
03:19PM 49.4816 10.3389 88° East  Level Estimated
03:20PM 49.4848 10.4633 88° East  Level Estimated
03:21PM 49.4879 10.5878 88° East  Level Estimated
03:22PM 49.4908 10.7122 88° East  Level Estimated
03:23PM 49.4937 10.8423 88° East  Level Estimated
03:24PM 49.4965 10.9724 88° East  Level Estimated
03:25PM 49.4986 11.0781 88° East  Level Estimated
03:26PM 49.4986 11.0781 327° Northwest  Level Estimated
03:27PM 49.4986 11.0781 327° Northwest  Level Estimated